Olenegorsk, Russia
Current Conditions -  °F | °C
As of 6:30 AM on Monday 24 Nov 2014 (Local Time) from ULMM Reporting Station
Broken Clouds Broken Clouds  
Wind Chill: 18°   Ceiling: 8000
Heat Index: 27°   Visibility: 6mi
Dew Point: 23°   Wind: 9mph
Humidity: 86%   Direction: 240°WSW
Pressure: 30.06"   Gusts: NA
Location:  68.15°N, 33.3°E
Report Text: ULMM 240330Z 24004MPS 9999 BRN015 BKN080 M03/M05 Q1018 NOSIGRMK QFE756 31690140
Loading
Personal Weather Stations






























Interactive Weather Map New forecast layout! Learn more

10-Day Weather Forecast

Advertisements
Track Severe Weather on mobile